sensor_id;sensor_type;location;lat;lon;timestamp;pressure;altitude;pressure_sealevel;temperature;humidity
70304;BME280;57712;48.752;11.348;2023-05-22T00:01:41;97115.97;;;17.24;100.00
70304;BME280;57712;48.752;11.348;2023-05-22T00:04:08;97116.16;;;17.21;100.00
70304;BME280;57712;48.752;11.348;2023-05-22T00:06:35;97123.97;;;17.22;100.00
70304;BME280;57712;48.752;11.348;2023-05-22T00:09:03;97113.38;;;17.21;100.00
70304;BME280;57712;48.752;11.348;2023-05-22T00:11:30;97115.56;;;17.17;100.00
70304;BME280;57712;48.752;11.348;2023-05-22T00:13:57;97119.38;;;17.19;100.00
70304;BME280;57712;48.752;11.348;2023-05-22T00:16:23;97113.84;;;17.19;100.00
70304;BME280;57712;48.752;11.348;2023-05-22T00:18:50;97119.28;;;17.14;100.00
70304;BME280;57712;48.752;11.348;2023-05-22T00:21:16;97123.75;;;17.11;100.00
70304;BME280;57712;48.752;11.348;2023-05-22T00:23:44;97118.50;;;17.13;100.00
70304;BME280;57712;48.752;11.348;2023-05-22T00:26:14;97116.84;;;17.07;100.00
70304;BME280;57712;48.752;11.348;2023-05-22T00:28:42;97106.72;;;17.03;100.00
70304;BME280;57712;48.752;11.348;2023-05-22T00:31:08;97114.03;;;16.92;100.00
70304;BME280;57712;48.752;11.348;2023-05-22T00:33:35;97118.97;;;16.88;100.00
70304;BME280;57712;48.752;11.348;2023-05-22T00:36:02;97121.47;;;16.77;100.00
70304;BME280;57712;48.752;11.348;2023-05-22T00:38:30;97115.66;;;16.74;100.00
70304;BME280;57712;48.752;11.348;2023-05-22T00:41:02;97125.09;;;16.68;100.00
70304;BME280;57712;48.752;11.348;2023-05-22T00:43:29;97113.84;;;16.71;100.00
70304;BME280;57712;48.752;11.348;2023-05-22T00:45:56;97108.31;;;16.71;100.00
70304;BME280;57712;48.752;11.348;2023-05-22T00:48:23;97117.84;;;16.70;100.00
70304;BME280;57712;48.752;11.348;2023-05-22T00:50:50;97112.03;;;16.68;100.00
70304;BME280;57712;48.752;11.348;2023-05-22T00:53:19;97114.03;;;16.68;100.00
70304;BME280;57712;48.752;11.348;2023-05-22T00:55:46;97115.69;;;16.65;100.00
70304;BME280;57712;48.752;11.348;2023-05-22T00:58:16;97115.19;;;16.67;100.00
70304;BME280;57712;48.752;11.348;2023-05-22T01:00:43;97115.69;;;16.65;100.00
70304;BME280;57712;48.752;11.348;2023-05-22T01:03:10;97107.84;;;16.64;100.00
70304;BME280;57712;48.752;11.348;2023-05-22T01:05:38;97110.50;;;16.58;100.00
70304;BME280;57712;48.752;11.348;2023-05-22T01:08:06;97115.09;;;16.61;100.00
70304;BME280;57712;48.752;11.348;2023-05-22T01:10:35;97127.72;;;16.53;100.00
70304;BME280;57712;48.752;11.348;2023-05-22T01:15:44;97132.06;;;16.45;100.00
70304;BME280;57712;48.752;11.348;2023-05-22T01:18:22;97123.94;;;16.41;100.00
70304;BME280;57712;48.752;11.348;2023-05-22T01:20:59;97135.63;;;16.36;100.00
70304;BME280;57712;48.752;11.348;2023-05-22T01:23:57;97125.03;;;16.35;100.00
70304;BME280;57712;48.752;11.348;2023-05-22T01:29:41;97128.13;;;16.28;100.00
70304;BME280;57712;48.752;11.348;2023-05-22T01:32:09;97124.59;;;16.27;100.00
70304;BME280;57712;48.752;11.348;2023-05-22T01:34:39;97124.75;;;16.24;100.00
70304;BME280;57712;48.752;11.348;2023-05-22T01:37:08;97126.47;;;16.21;100.00
70304;BME280;57712;48.752;11.348;2023-05-22T01:39:35;97121.09;;;16.17;100.00
70304;BME280;57712;48.752;11.348;2023-05-22T01:42:03;97124.16;;;16.20;100.00
70304;BME280;57712;48.752;11.348;2023-05-22T01:44:31;97124.16;;;16.20;100.00
70304;BME280;57712;48.752;11.348;2023-05-22T01:46:57;97129.41;;;16.08;100.00
70304;BME280;57712;48.752;11.348;2023-05-22T01:49:28;97128.47;;;16.11;100.00
70304;BME280;57712;48.752;11.348;2023-05-22T01:52:06;97129.41;;;16.08;100.00
70304;BME280;57712;48.752;11.348;2023-05-22T01:54:57;97130.00;;;16.12;100.00
70304;BME280;57712;48.752;11.348;2023-05-22T01:57:46;97132.19;;;16.08;100.00
70304;BME280;57712;48.752;11.348;2023-05-22T02:00:15;97138.59;;;16.14;100.00
70304;BME280;57712;48.752;11.348;2023-05-22T02:02:47;97143.84;;;16.03;100.00
70304;BME280;57712;48.752;11.348;2023-05-22T02:05:16;97138.31;;;16.03;100.00
70304;BME280;57712;48.752;11.348;2023-05-22T02:07:44;97137.41;;;16.06;100.00
70304;BME280;57712;48.752;11.348;2023-05-22T02:10:12;97136.19;;;15.98;100.00
70304;BME280;57712;48.752;11.348;2023-05-22T02:12:40;97136.19;;;15.98;100.00
70304;BME280;57712;48.752;11.348;2023-05-22T02:15:07;97143.72;;;15.88;100.00
70304;BME280;57712;48.752;11.348;2023-05-22T02:17:38;97136.69;;;15.87;100.00
70304;BME280;57712;48.752;11.348;2023-05-22T02:20:13;97131.47;;;15.80;100.00
70304;BME280;57712;48.752;11.348;2023-05-22T02:22:46;97129.75;;;15.83;100.00
70304;BME280;57712;48.752;11.348;2023-05-22T02:25:13;97135.00;;;15.81;100.00
70304;BME280;57712;48.752;11.348;2023-05-22T02:27:41;97137.00;;;15.80;100.00
70304;BME280;57712;48.752;11.348;2023-05-22T02:30:09;97131.47;;;15.71;100.00
70304;BME280;57712;48.752;11.348;2023-05-22T02:32:37;97136.38;;;15.76;100.00
70304;BME280;57712;48.752;11.348;2023-05-22T02:35:04;97131.47;;;15.53;100.00
70304;BME280;57712;48.752;11.348;2023-05-22T02:37:31;97129.81;;;15.65;100.00
70304;BME280;57712;48.752;11.348;2023-05-22T02:39:58;97128.84;;;15.58;100.00
70304;BME280;57712;48.752;11.348;2023-05-22T02:42:24;97135.59;;;15.57;100.00
70304;BME280;57712;48.752;11.348;2023-05-22T02:44:51;97137.13;;;15.49;100.00
70304;BME280;57712;48.752;11.348;2023-05-22T02:47:18;97137.44;;;15.51;100.00
70304;BME280;57712;48.752;11.348;2023-05-22T02:49:44;97141.75;;;15.43;100.00
70304;BME280;57712;48.752;11.348;2023-05-22T02:52:11;97140.81;;;15.46;100.00
70304;BME280;57712;48.752;11.348;2023-05-22T02:54:38;97145.72;;;15.33;100.00
70304;BME280;57712;48.752;11.348;2023-05-22T02:57:05;97147.72;;;15.33;100.00
70304;BME280;57712;48.752;11.348;2023-05-22T02:59:31;97152.47;;;15.23;100.00
70304;BME280;57712;48.752;11.348;2023-05-22T03:01:58;97150.75;;;15.07;100.00
70304;BME280;57712;48.752;11.348;2023-05-22T03:04:25;97150.13;;;14.94;100.00
70304;BME280;57712;48.752;11.348;2023-05-22T03:06:51;97150.25;;;14.81;100.00
70304;BME280;57712;48.752;11.348;2023-05-22T03:09:18;97151.75;;;14.73;100.00
70304;BME280;57712;48.752;11.348;2023-05-22T03:11:45;97152.03;;;14.66;100.00
70304;BME280;57712;48.752;11.348;2023-05-22T03:14:12;97147.13;;;14.61;100.00
70304;BME280;57712;48.752;11.348;2023-05-22T03:16:38;97152.44;;;14.55;100.00
70304;BME280;57712;48.752;11.348;2023-05-22T03:19:13;97156.94;;;14.40;100.00
70304;BME280;57712;48.752;11.348;2023-05-22T03:21:41;97155.41;;;14.39;100.00
70304;BME280;57712;48.752;11.348;2023-05-22T03:24:09;97149.41;;;14.31;100.00
70304;BME280;57712;48.752;11.348;2023-05-22T03:26:37;97159.31;;;14.20;100.00
70304;BME280;57712;48.752;11.348;2023-05-22T03:29:04;97154.19;;;14.09;100.00
70304;BME280;57712;48.752;11.348;2023-05-22T03:31:32;97151.13;;;14.07;100.00
70304;BME280;57712;48.752;11.348;2023-05-22T03:33:59;97158.41;;;14.01;100.00
70304;BME280;57712;48.752;11.348;2023-05-22T03:36:26;97158.28;;;14.04;100.00
70304;BME280;57712;48.752;11.348;2023-05-22T03:38:55;97161.31;;;13.97;100.00
70304;BME280;57712;48.752;11.348;2023-05-22T03:41:21;97159.75;;;13.96;100.00
70304;BME280;57712;48.752;11.348;2023-05-22T03:43:48;97156.88;;;14.00;100.00
70304;BME280;57712;48.752;11.348;2023-05-22T03:46:15;97152.59;;;13.99;100.00
70304;BME280;57712;48.752;11.348;2023-05-22T03:48:41;97148.56;;;13.91;100.00
70304;BME280;57712;48.752;11.348;2023-05-22T03:51:08;97152.53;;;13.90;100.00
70304;BME280;57712;48.752;11.348;2023-05-22T03:53:34;97158.06;;;13.90;100.00
70304;BME280;57712;48.752;11.348;2023-05-22T03:56:01;97149.47;;;13.88;100.00
70304;BME280;57712;48.752;11.348;2023-05-22T03:58:28;97152.53;;;13.90;100.00
70304;BME280;57712;48.752;11.348;2023-05-22T04:00:54;97158.06;;;13.90;100.00
70304;BME280;57712;48.752;11.348;2023-05-22T04:03:24;97162.78;;;13.89;100.00
70304;BME280;57712;48.752;11.348;2023-05-22T04:05:50;97151.63;;;13.93;100.00
70304;BME280;57712;48.752;11.348;2023-05-22T04:08:17;97156.75;;;14.03;100.00
70304;BME280;57712;48.752;11.348;2023-05-22T04:10:44;97156.94;;;14.09;100.00
70304;BME280;57712;48.752;11.348;2023-05-22T04:13:12;97155.78;;;14.19;100.00
70304;BME280;57712;48.752;11.348;2023-05-22T04:15:39;97156.81;;;14.43;100.00
70304;BME280;57712;48.752;11.348;2023-05-22T04:18:07;97151.59;;;14.77;100.00
70304;BME280;57712;48.752;11.348;2023-05-22T04:20:34;97147.84;;;15.01;100.00
70304;BME280;57712;48.752;11.348;2023-05-22T04:23:00;97154.63;;;15.55;100.00
70304;BME280;57712;48.752;11.348;2023-05-22T04:25:27;97157.72;;;15.76;100.00
70304;BME280;57712;48.752;11.348;2023-05-22T04:27:53;97151.84;;;16.01;100.00
70304;BME280;57712;48.752;11.348;2023-05-22T04:30:20;97143.88;;;15.94;100.00
70304;BME280;57712;48.752;11.348;2023-05-22T04:32:47;97162.88;;;16.01;100.00
70304;BME280;57712;48.752;11.348;2023-05-22T04:35:14;97161.47;;;16.24;100.00
70304;BME280;57712;48.752;11.348;2023-05-22T04:37:44;97155.31;;;16.29;100.00
70304;BME280;57712;48.752;11.348;2023-05-22T04:40:13;97157.59;;;16.40;100.00
70304;BME280;57712;48.752;11.348;2023-05-22T04:42:40;97157.25;;;16.47;100.00
70304;BME280;57712;48.752;11.348;2023-05-22T04:45:11;97166.13;;;16.51;100.00
70304;BME280;57712;48.752;11.348;2023-05-22T04:47:39;97161.19;;;16.55;100.00
70304;BME280;57712;48.752;11.348;2023-05-22T04:50:07;97155.03;;;16.69;100.00
70304;BME280;57712;48.752;11.348;2023-05-22T04:52:34;97165.16;;;16.72;100.00
70304;BME280;57712;48.752;11.348;2023-05-22T04:55:01;97161.53;;;16.90;100.00
70304;BME280;57712;48.752;11.348;2023-05-22T04:57:31;97157.50;;;17.00;100.00
70304;BME280;57712;48.752;11.348;2023-05-22T04:59:57;97158.34;;;16.83;100.00
70304;BME280;57712;48.752;11.348;2023-05-22T05:02:24;97164.41;;;16.96;100.00
70304;BME280;57712;48.752;11.348;2023-05-22T05:04:50;97164.38;;;17.05;100.00
70304;BME280;57712;48.752;11.348;2023-05-22T05:07:18;97169.50;;;17.21;100.00
70304;BME280;57712;48.752;11.348;2023-05-22T05:09:45;97159.41;;;17.57;100.00
70304;BME280;57712;48.752;11.348;2023-05-22T05:12:11;97158.53;;;17.89;100.00
70304;BME280;57712;48.752;11.348;2023-05-22T05:14:38;97164.56;;;18.32;100.00
70304;BME280;57712;48.752;11.348;2023-05-22T05:17:04;97161.38;;;18.54;100.00
70304;BME280;57712;48.752;11.348;2023-05-22T05:19:31;97160.34;;;18.52;100.00
70304;BME280;57712;48.752;11.348;2023-05-22T05:22:02;97169.25;;;18.41;100.00
70304;BME280;57712;48.752;11.348;2023-05-22T05:24:28;97161.03;;;18.32;100.00
70304;BME280;57712;48.752;11.348;2023-05-22T05:26:55;97164.66;;;18.53;100.00
70304;BME280;57712;48.752;11.348;2023-05-22T05:29:21;97161.22;;;18.58;100.00
70304;BME280;57712;48.752;11.348;2023-05-22T05:31:48;97158.25;;;18.46;100.00
70304;BME280;57712;48.752;11.348;2023-05-22T05:34:15;97163.13;;;18.52;100.00
70304;BME280;57712;48.752;11.348;2023-05-22T05:36:41;97161.69;;;18.56;100.00
70304;BME280;57712;48.752;11.348;2023-05-22T05:39:08;97158.13;;;19.06;100.00
70304;BME280;57712;48.752;11.348;2023-05-22T05:41:35;97161.03;;;18.76;100.00
70304;BME280;57712;48.752;11.348;2023-05-22T05:44:01;97158.59;;;19.19;100.00
70304;BME280;57712;48.752;11.348;2023-05-22T05:46:28;97161.53;;;18.95;100.00
70304;BME280;57712;48.752;11.348;2023-05-22T05:48:54;97160.16;;;19.05;100.00
70304;BME280;57712;48.752;11.348;2023-05-22T05:51:21;97152.28;;;19.39;100.00
70304;BME280;57712;48.752;11.348;2023-05-22T05:53:48;97165.38;;;19.38;100.00
70304;BME280;57712;48.752;11.348;2023-05-22T05:56:14;97167.34;;;19.73;100.00
70304;BME280;57712;48.752;11.348;2023-05-22T05:58:41;97167.84;;;19.97;100.00
70304;BME280;57712;48.752;11.348;2023-05-22T06:01:08;97170.03;;;19.47;100.00
70304;BME280;57712;48.752;11.348;2023-05-22T06:03:34;97172.69;;;19.76;100.00
70304;BME280;57712;48.752;11.348;2023-05-22T06:06:01;97168.75;;;19.63;100.00
70304;BME280;57712;48.752;11.348;2023-05-22T06:08:29;97168.00;;;19.62;100.00
70304;BME280;57712;48.752;11.348;2023-05-22T06:10:57;97180.53;;;19.78;100.00
70304;BME280;57712;48.752;11.348;2023-05-22T06:13:24;97181.22;;;19.93;100.00
70304;BME280;57712;48.752;11.348;2023-05-22T06:15:50;97185.78;;;19.96;100.00
70304;BME280;57712;48.752;11.348;2023-05-22T06:18:17;97176.97;;;20.24;100.00
70304;BME280;57712;48.752;11.348;2023-05-22T06:20:44;97184.69;;;20.40;100.00
70304;BME280;57712;48.752;11.348;2023-05-22T06:23:11;97176.25;;;20.29;100.00
70304;BME280;57712;48.752;11.348;2023-05-22T06:25:37;97173.47;;;20.29;100.00
70304;BME280;57712;48.752;11.348;2023-05-22T06:28:05;97174.56;;;19.85;100.00
70304;BME280;57712;48.752;11.348;2023-05-22T06:30:31;97179.47;;;19.96;100.00
70304;BME280;57712;48.752;11.348;2023-05-22T06:33:05;97179.59;;;20.33;100.00
70304;BME280;57712;48.752;11.348;2023-05-22T06:35:33;97173.09;;;20.15;100.00
70304;BME280;57712;48.752;11.348;2023-05-22T06:37:59;97177.59;;;20.39;100.00
70304;BME280;57712;48.752;11.348;2023-05-22T06:40:26;97177.75;;;20.24;100.00
70304;BME280;57712;48.752;11.348;2023-05-22T06:42:52;97183.28;;;20.50;100.00
70304;BME280;57712;48.752;11.348;2023-05-22T06:45:19;97172.41;;;20.84;100.00
70304;BME280;57712;48.752;11.348;2023-05-22T06:47:46;97175.06;;;21.04;100.00
70304;BME280;57712;48.752;11.348;2023-05-22T06:50:12;97181.88;;;20.97;100.00
70304;BME280;57712;48.752;11.348;2023-05-22T06:52:39;97181.69;;;20.69;100.00
70304;BME280;57712;48.752;11.348;2023-05-22T06:55:06;97180.50;;;20.82;100.00
70304;BME280;57712;48.752;11.348;2023-05-22T06:57:33;97183.72;;;21.12;100.00
70304;BME280;57712;48.752;11.348;2023-05-22T07:00:00;97179.91;;;21.52;100.00
70304;BME280;57712;48.752;11.348;2023-05-22T07:02:26;97189.34;;;21.17;100.00
70304;BME280;57712;48.752;11.348;2023-05-22T07:04:53;97190.06;;;21.12;100.00
70304;BME280;57712;48.752;11.348;2023-05-22T07:07:20;97192.50;;;21.36;100.00
70304;BME280;57712;48.752;11.348;2023-05-22T07:09:46;97186.00;;;21.56;100.00
70304;BME280;57712;48.752;11.348;2023-05-22T07:12:13;97196.19;;;21.59;100.00
70304;BME280;57712;48.752;11.348;2023-05-22T07:14:40;97195.88;;;21.51;100.00
70304;BME280;57712;48.752;11.348;2023-05-22T07:17:06;97193.91;;;21.20;100.00
70304;BME280;57712;48.752;11.348;2023-05-22T07:19:33;97196.66;;;21.15;100.00
70304;BME280;57712;48.752;11.348;2023-05-22T07:22:01;97192.13;;;21.17;100.00
70304;BME280;57712;48.752;11.348;2023-05-22T07:24:27;97190.31;;;21.57;100.00
70304;BME280;57712;48.752;11.348;2023-05-22T07:26:54;97200.69;;;21.51;100.00
70304;BME280;57712;48.752;11.348;2023-05-22T07:29:21;97192.09;;;21.49;100.00
70304;BME280;57712;48.752;11.348;2023-05-22T07:31:48;97198.22;;;21.64;100.00
70304;BME280;57712;48.752;11.348;2023-05-22T07:34:15;97196.44;;;21.67;100.00
70304;BME280;57712;48.752;11.348;2023-05-22T07:36:43;97198.22;;;21.64;100.00
70304;BME280;57712;48.752;11.348;2023-05-22T07:39:09;97197.53;;;21.86;100.00
70304;BME280;57712;48.752;11.348;2023-05-22T07:41:36;97192.00;;;22.03;100.00
70304;BME280;57712;48.752;11.348;2023-05-22T07:44:03;97205.13;;;21.80;100.00
70304;BME280;57712;48.752;11.348;2023-05-22T07:46:29;97182.13;;;22.02;100.00
70304;BME280;57712;48.752;11.348;2023-05-22T07:48:56;97189.56;;;22.33;100.00
70304;BME280;57712;48.752;11.348;2023-05-22T07:51:23;97189.31;;;22.47;100.00
70304;BME280;57712;48.752;11.348;2023-05-22T07:53:49;97192.34;;;22.27;100.00
70304;BME280;57712;48.752;11.348;2023-05-22T07:56:16;97195.69;;;23.04;100.00
70304;BME280;57712;48.752;11.348;2023-05-22T07:58:43;97192.88;;;22.87;100.00
70304;BME280;57712;48.752;11.348;2023-05-22T08:01:09;97196.97;;;22.86;100.00
70304;BME280;57712;48.752;11.348;2023-05-22T08:03:36;97187.75;;;23.25;100.00
70304;BME280;57712;48.752;11.348;2023-05-22T08:06:03;97197.59;;;23.59;100.00
70304;BME280;57712;48.752;11.348;2023-05-22T08:08:30;97189.66;;;23.64;98.15
70304;BME280;57712;48.752;11.348;2023-05-22T08:10:57;97187.94;;;23.49;96.99
70304;BME280;57712;48.752;11.348;2023-05-22T08:13:26;97191.75;;;23.46;97.99
70304;BME280;57712;48.752;11.348;2023-05-22T08:15:53;97180.09;;;23.31;100.00
70304;BME280;57712;48.752;11.348;2023-05-22T08:18:26;97194.88;;;23.26;100.00
70304;BME280;57712;48.752;11.348;2023-05-22T08:20:55;97181.91;;;23.92;100.00
70304;BME280;57712;48.752;11.348;2023-05-22T08:23:21;97194.97;;;23.73;94.45
70304;BME280;57712;48.752;11.348;2023-05-22T08:25:48;97189.72;;;24.05;100.00
70304;BME280;57712;48.752;11.348;2023-05-22T08:28:16;97190.06;;;23.90;100.00
70304;BME280;57712;48.752;11.348;2023-05-22T08:30:42;97190.56;;;23.94;96.22
70304;BME280;57712;48.752;11.348;2023-05-22T08:33:09;97191.47;;;23.67;92.44
70304;BME280;57712;48.752;11.348;2023-05-22T08:35:37;97190.94;;;23.68;94.54
70304;BME280;57712;48.752;11.348;2023-05-22T08:38:04;97190.03;;;23.26;93.86
70304;BME280;57712;48.752;11.348;2023-05-22T08:40:34;97190.72;;;23.60;98.42
70304;BME280;57712;48.752;11.348;2023-05-22T08:43:03;97185.75;;;23.89;100.00
70304;BME280;57712;48.752;11.348;2023-05-22T08:45:32;97183.41;;;23.35;97.22
70304;BME280;57712;48.752;11.348;2023-05-22T08:48:03;97179.41;;;23.83;92.01
70304;BME280;57712;48.752;11.348;2023-05-22T08:50:39;97177.44;;;24.19;95.10
70304;BME280;57712;48.752;11.348;2023-05-22T08:53:10;97183.50;;;23.82;91.22
70304;BME280;57712;48.752;11.348;2023-05-22T08:55:38;97181.91;;;23.92;93.33
70304;BME280;57712;48.752;11.348;2023-05-22T08:58:05;97179.22;;;24.16;100.00
70304;BME280;57712;48.752;11.348;2023-05-22T09:00:32;97175.84;;;24.29;97.48
70304;BME280;57712;48.752;11.348;2023-05-22T09:02:59;97182.31;;;23.66;97.75
70304;BME280;57712;48.752;11.348;2023-05-22T09:05:26;97176.75;;;24.07;94.50
70304;BME280;57712;48.752;11.348;2023-05-22T09:07:53;97171.16;;;24.07;94.70
70304;BME280;57712;48.752;11.348;2023-05-22T09:10:23;97177.63;;;23.85;100.00
70304;BME280;57712;48.752;11.348;2023-05-22T09:13:07;97169.06;;;24.13;91.23
70304;BME280;57712;48.752;11.348;2023-05-22T09:15:37;97174.00;;;24.43;97.52
70304;BME280;57712;48.752;11.348;2023-05-22T09:18:04;97170.38;;;24.48;94.62
70304;BME280;57712;48.752;11.348;2023-05-22T09:20:35;97175.13;;;24.23;97.59
70304;BME280;57712;48.752;11.348;2023-05-22T09:23:11;97168.41;;;24.43;90.67
70304;BME280;57712;48.752;11.348;2023-05-22T09:25:37;97169.34;;;24.10;89.40
70304;BME280;57712;48.752;11.348;2023-05-22T09:28:04;97179.94;;;24.64;98.58
70304;BME280;57712;48.752;11.348;2023-05-22T09:30:33;97170.38;;;24.48;93.43
70304;BME280;57712;48.752;11.348;2023-05-22T09:33:00;97177.06;;;24.69;83.34
70304;BME280;57712;48.752;11.348;2023-05-22T09:35:30;97167.44;;;24.35;91.37
70304;BME280;57712;48.752;11.348;2023-05-22T09:37:57;97176.84;;;24.67;87.46
70304;BME280;57712;48.752;11.348;2023-05-22T09:40:26;97174.34;;;24.94;84.40
70304;BME280;57712;48.752;11.348;2023-05-22T09:42:53;97181.84;;;25.10;90.71
70304;BME280;57712;48.752;11.348;2023-05-22T09:45:22;97182.50;;;24.92;88.87
70304;BME280;57712;48.752;11.348;2023-05-22T09:47:50;97176.53;;;25.01;86.82
70304;BME280;57712;48.752;11.348;2023-05-22T09:50:17;97188.69;;;24.85;82.70
70304;BME280;57712;48.752;11.348;2023-05-22T09:52:44;97188.72;;;25.09;85.17
70304;BME280;57712;48.752;11.348;2023-05-22T09:55:12;97179.44;;;25.87;80.63
70304;BME280;57712;48.752;11.348;2023-05-22T09:57:44;97179.06;;;25.97;71.88
70304;BME280;57712;48.752;11.348;2023-05-22T10:00:11;97177.56;;;25.96;72.48
70304;BME280;57712;48.752;11.348;2023-05-22T10:02:43;97184.81;;;26.23;68.37
70304;BME280;57712;48.752;11.348;2023-05-22T10:05:12;97170.34;;;26.70;68.58
70304;BME280;57712;48.752;11.348;2023-05-22T10:07:48;97177.72;;;27.31;70.76
70304;BME280;57712;48.752;11.348;2023-05-22T10:10:20;97164.81;;;27.23;69.84
70304;BME280;57712;48.752;11.348;2023-05-22T10:12:56;97170.00;;;27.19;63.13
70304;BME280;57712;48.752;11.348;2023-05-22T10:15:26;97165.97;;;28.83;60.67
70304;BME280;57712;48.752;11.348;2023-05-22T10:17:53;97172.81;;;27.06;57.97
70304;BME280;57712;48.752;11.348;2023-05-22T10:20:20;97171.44;;;28.12;60.71
70304;BME280;57712;48.752;11.348;2023-05-22T10:22:48;97171.91;;;26.97;55.99
70304;BME280;57712;48.752;11.348;2023-05-22T10:25:16;97169.91;;;27.11;56.52
70304;BME280;57712;48.752;11.348;2023-05-22T10:27:44;97165.25;;;27.53;58.22
70304;BME280;57712;48.752;11.348;2023-05-22T10:30:31;97168.38;;;28.37;60.14
70304;BME280;57712;48.752;11.348;2023-05-22T10:33:21;97164.44;;;28.06;53.78
70304;BME280;57712;48.752;11.348;2023-05-22T10:36:03;97161.22;;;28.36;51.27
70304;BME280;57712;48.752;11.348;2023-05-22T10:41:06;97156.88;;;29.26;54.66
70304;BME280;57712;48.752;11.348;2023-05-22T10:43:37;97161.81;;;28.84;53.24
70304;BME280;57712;48.752;11.348;2023-05-22T10:46:05;97162.59;;;29.33;48.74
70304;BME280;57712;48.752;11.348;2023-05-22T10:48:39;97150.34;;;29.02;50.07
70304;BME280;57712;48.752;11.348;2023-05-22T10:51:07;97142.94;;;29.20;48.27
70304;BME280;57712;48.752;11.348;2023-05-22T10:53:35;97148.91;;;29.09;56.40
70304;BME280;57712;48.752;11.348;2023-05-22T10:56:12;97151.09;;;29.03;48.80
70304;BME280;57712;48.752;11.348;2023-05-22T10:58:42;97142.63;;;29.31;52.53
70304;BME280;57712;48.752;11.348;2023-05-22T11:01:14;97145.56;;;27.67;53.49
70304;BME280;57712;48.752;11.348;2023-05-22T11:03:58;97139.91;;;28.48;49.79
70304;BME280;57712;48.752;11.348;2023-05-22T11:11:45;97140.38;;;29.30;45.81
70304;BME280;57712;48.752;11.348;2023-05-22T11:14:15;97146.34;;;29.26;50.80
70304;BME280;57712;48.752;11.348;2023-05-22T11:16:43;97146.56;;;28.37;44.82
70304;BME280;57712;48.752;11.348;2023-05-22T11:19:10;97136.53;;;28.29;45.44
70304;BME280;57712;48.752;11.348;2023-05-22T11:21:48;97141.03;;;29.15;47.18
70304;BME280;57712;48.752;11.348;2023-05-22T11:24:15;97134.69;;;29.22;48.43
70304;BME280;57712;48.752;11.348;2023-05-22T11:26:43;97137.16;;;28.35;49.12
70304;BME280;57712;48.752;11.348;2023-05-22T11:29:27;97137.91;;;28.98;52.43
70304;BME280;57712;48.752;11.348;2023-05-22T11:31:56;97141.50;;;28.78;48.26
70304;BME280;57712;48.752;11.348;2023-05-22T11:34:24;97136.66;;;30.15;47.22
70304;BME280;57712;48.752;11.348;2023-05-22T11:37:00;97136.25;;;30.11;44.34
70304;BME280;57712;48.752;11.348;2023-05-22T11:39:26;97133.66;;;30.28;50.15
70304;BME280;57712;48.752;11.348;2023-05-22T11:41:53;97129.03;;;29.22;44.77
70304;BME280;57712;48.752;11.348;2023-05-22T11:44:20;97126.31;;;29.09;49.33
70304;BME280;57712;48.752;11.348;2023-05-22T11:46:47;97130.56;;;29.59;45.56
70304;BME280;57712;48.752;11.348;2023-05-22T11:49:13;97124.84;;;29.88;46.28
70304;BME280;57712;48.752;11.348;2023-05-22T11:51:40;97116.34;;;29.73;48.47
70304;BME280;57712;48.752;11.348;2023-05-22T11:54:08;97111.81;;;30.36;42.90
70304;BME280;57712;48.752;11.348;2023-05-22T11:56:35;97123.47;;;29.38;46.07
70304;BME280;57712;48.752;11.348;2023-05-22T11:59:02;97119.56;;;29.12;46.60
70304;BME280;57712;48.752;11.348;2023-05-22T12:01:29;97117.88;;;29.45;44.27
70304;BME280;57712;48.752;11.348;2023-05-22T12:03:56;97119.31;;;29.31;47.86
70304;BME280;57712;48.752;11.348;2023-05-22T12:06:22;97120.97;;;29.55;47.37
70304;BME280;57712;48.752;11.348;2023-05-22T12:08:49;97118.00;;;29.32;45.74
70304;BME280;57712;48.752;11.348;2023-05-22T12:11:16;97116.44;;;29.52;48.13
70304;BME280;57712;48.752;11.348;2023-05-22T12:13:43;97107.38;;;28.89;44.50
70304;BME280;57712;48.752;11.348;2023-05-22T12:16:18;97108.66;;;29.88;43.30
70304;BME280;57712;48.752;11.348;2023-05-22T12:18:51;97102.38;;;29.02;43.29
70304;BME280;57712;48.752;11.348;2023-05-22T12:21:19;97103.31;;;29.33;45.45
70304;BME280;57712;48.752;11.348;2023-05-22T12:23:50;97097.38;;;28.88;47.01
70304;BME280;57712;48.752;11.348;2023-05-22T12:26:17;97093.09;;;29.23;43.13
70304;BME280;57712;48.752;11.348;2023-05-22T12:28:44;97099.03;;;29.40;46.20
70304;BME280;57712;48.752;11.348;2023-05-22T12:31:19;97094.16;;;28.84;43.85
70304;BME280;57712;48.752;11.348;2023-05-22T12:33:45;97088.81;;;28.72;43.57
70304;BME280;57712;48.752;11.348;2023-05-22T12:36:14;97093.28;;;28.89;45.90
70304;BME280;57712;48.752;11.348;2023-05-22T12:38:41;97091.88;;;28.19;41.58
70304;BME280;57712;48.752;11.348;2023-05-22T12:41:09;97089.91;;;28.69;43.98
70304;BME280;57712;48.752;11.348;2023-05-22T12:43:35;97092.63;;;29.03;41.76
70304;BME280;57712;48.752;11.348;2023-05-22T12:46:02;97092.00;;;29.62;39.82
70304;BME280;57712;48.752;11.348;2023-05-22T12:48:29;97081.69;;;29.28;38.46
70304;BME280;57712;48.752;11.348;2023-05-22T12:50:56;97079.03;;;28.73;37.67
70304;BME280;57712;48.752;11.348;2023-05-22T12:53:22;97082.53;;;28.87;40.33
70304;BME280;57712;48.752;11.348;2023-05-22T12:55:49;97083.97;;;28.81;40.76
70304;BME280;57712;48.752;11.348;2023-05-22T12:58:15;97073.31;;;28.24;39.71
70304;BME280;57712;48.752;11.348;2023-05-22T13:00:42;97068.41;;;28.17;41.85
70304;BME280;57712;48.752;11.348;2023-05-22T13:03:09;97086.03;;;29.01;43.21